Latest Weather Observations for Rabbit Flat

IDD60801

Issued at 3:05 pm CST Wednesday 1 October 2014 (issued every 30 minutes, with the page automatically refreshed every 10 minutes)

About weather observations | Map of weather stations | Latest weather observations for NT | Other Formats
Station Details ID: 015666 Name: RABBIT FLAT Lat: -20.18 Lon: 130.01 Height: 340.0 m
Data from the previous 72 hours. | See also: Recent months at Rabbit Flat
Date/Time
CST
Temp
°C
App
Temp
°C
Dew
Point
Rel
Hum
%
Delta-T
°C
Wind Press
QNH
hPa
Press
MSL
hPa
Rain
since 9 am
mm
Dir
 
Spd
km/h
Gust
km/h
Spd
kts
Gust
kts
01/03:00pm 37.9 32.9 1.6 10 19.0 SE 17 24 9 13 1012.4 1010.2 0.0
01/02:30pm 37.5 32.3 2.2 11 18.6 E 19 28 10 15 1012.9 - 0.0
01/02:00pm 37.4 33.5 3.2 12 18.3 ENE 13 24 7 13 1013.3 - 0.0
01/01:30pm 37.1 31.7 1.1 10 18.6 E 19 28 10 15 1013.8 - 0.0
01/01:00pm 37.0 32.4 1.3 10 18.5 ESE 15 28 8 15 1014.4 - 0.0
01/12:30pm 37.6 33.7 3.2 12 18.4 NNE 13 24 7 13 1014.7 - 0.0
01/12:00pm 37.1 31.6 1.9 11 18.4 E 20 28 11 15 1015.2 1012.9 0.0
01/11:30am 36.5 32.6 3.6 13 17.6 ENE 13 30 7 16 1015.5 - 0.0
01/11:00am 36.0 33.5 4.7 14 17.0 ENE 7 22 4 12 1015.9 - 0.0
01/10:30am 35.5 33.6 6.6 17 16.1 SSE 6 11 3 6 1016.0 - 0.0
01/10:00am 33.9 32.4 6.6 18 15.1 E 4 11 2 6 1016.1 - 0.0
01/09:30am 31.4 31.1 8.5 24 12.9 CALM 0 0 0 0 1016.1 - 0.0
01/09:00am 31.6 30.9 8.6 24 13.0 S 2 6 1 3 1016.0 1013.8 0.0
01/08:30am 24.6 22.0 4.4 27 10.2 S 7 11 4 6 1015.7 - 0.0
01/08:00am 22.4 19.8 4.3 30 9.0 S 7 13 4 7 1015.5 - 0.0
01/07:30am 19.0 16.7 4.7 39 7.0 S 6 7 3 4 1015.0 - 0.0
01/07:00am 14.7 12.3 5.1 52 4.6 W 7 9 4 5 1014.5 - 0.0
01/06:30am 14.1 11.7 4.5 52 4.5 W 6 7 3 4 1014.2 - 0.0
01/06:00am 14.3 12.7 4.3 51 4.7 SSW 2 7 1 4 1013.8 1011.6 0.0
01/05:30am 14.5 13.1 3.7 48 5.0 CALM 0 0 0 0 1013.3 - 0.0
01/05:00am 14.7 12.2 3.5 47 5.2 ESE 6 9 3 5 1013.1 - 0.0
01/04:30am 15.3 12.6 3.5 45 5.5 ESE 7 9 4 5 1012.9 - 0.0
01/04:00am 16.0 13.5 3.6 43 5.8 SSE 6 7 3 4 1012.6 - 0.0
01/03:30am 15.6 13.2 4.5 47 5.3 W 6 7 3 4 1012.5 - 0.0
01/03:00am 15.5 13.1 2.3 41 6.0 W 4 7 2 4 1012.5 1010.3 0.0
01/02:30am 16.2 14.7 3.1 41 6.1 CALM 0 0 0 0 1012.9 - 0.0
01/02:00am 17.0 14.6 4.3 43 6.1 N 6 7 3 4 1013.0 - 0.0
01/01:30am 18.0 15.3 2.6 35 7.2 WNW 6 7 3 4 1013.2 - 0.0
01/01:00am 19.5 16.6 2.5 32 8.0 NW 7 9 4 5 1013.4 - 0.0
01/12:30am 20.0 17.0 2.1 30 8.4 WNW 7 9 4 5 1013.6 - 0.0
01/12:00am 20.2 16.7 1.4 28 8.7 WNW 9 11 5 6 1013.9 1012.2 0.0
 
Date/Time
CST
Temp
°C
App
Temp
°C
Dew
Point
Rel
Hum
%
Delta-T
°C
Wind Press
QNH
hPa
Press
MSL
hPa
Rain
since 9 am
mm
Dir
 
Spd
km/h
Gust
km/h
Spd
kts
Gust
kts
30/11:30pm 21.4 18.3 1.2 26 9.4 N 7 9 4 5 1014.2 - 0.0
30/11:00pm 23.1 19.6 1.3 23 10.3 ESE 9 13 5 7 1014.3 - 0.0
30/10:30pm 23.8 22.1 1.6 23 10.6 CALM 0 9 0 5 1014.3 - 0.0
30/10:00pm 26.0 22.4 0.6 19 12.1 ENE 9 15 5 8 1014.2 - 0.0
30/09:30pm 26.0 22.8 0.6 19 12.1 ENE 7 15 4 8 1014.2 - 0.0
30/09:00pm 26.0 22.7 -0.1 18 12.3 E 7 11 4 6 1013.9 1012.2 0.0
30/08:30pm 24.9 22.2 3.8 25 10.6 ESE 7 11 4 6 1013.6 - 0.0
30/08:00pm 26.1 22.8 2.7 22 11.6 E 9 11 5 6 1013.3 - 0.0
30/07:30pm 28.9 26.4 4.5 21 12.7 ESE 7 9 4 5 1012.8 - 0.0
30/07:00pm 31.8 28.9 2.6 15 15.0 E 7 11 4 6 1012.3 - 0.0
30/06:30pm 34.5 30.0 -3.2 9 17.9 E 11 19 6 10 1011.7 - 0.0
30/06:00pm 36.0 30.8 -6.1 6 19.3 ESE 13 17 7 9 1011.3 1009.6 0.0
30/05:30pm 36.7 31.1 -6.7 6 19.8 E 15 26 8 14 1011.0 - 0.0
30/05:00pm 37.1 31.3 -8.5 5 20.3 SE 15 28 8 15 1010.8 - 0.0
30/04:30pm 37.5 31.3 -9.0 5 20.6 ESE 17 28 9 15 1010.8 - 0.0
30/04:00pm 37.6 30.5 -7.8 5 20.5 NE 22 28 12 15 1010.8 - 0.0
30/03:30pm 37.8 31.2 -9.2 5 20.8 ENE 19 32 10 17 1011.0 - 0.0
30/03:00pm 37.7 31.4 -10.6 4 20.9 E 17 30 9 16 1011.1 1009.4 0.0
30/02:30pm 37.4 31.1 -9.6 4 20.6 ESE 17 35 9 19 1011.4 - 0.0
30/02:00pm 37.3 31.4 -10.1 4 20.6 ESE 15 30 8 16 1011.9 - 0.0
30/01:30pm 37.3 30.4 -10.1 4 20.6 ENE 20 32 11 17 1012.3 - 0.0
30/01:00pm 37.2 31.1 -7.4 5 20.2 ENE 17 28 9 15 1012.6 - 0.0
30/12:30pm 37.4 30.9 -8.1 5 20.4 E 19 32 10 17 1013.2 - 0.0
30/12:00pm 36.8 29.9 -5.7 6 19.7 NNE 22 39 12 21 1013.7 1012.0 0.0
30/11:30am 36.2 29.6 -3.7 8 19.0 NNE 22 35 12 19 1014.0 - 0.0
30/11:00am 35.6 28.9 -4.0 8 18.7 NE 22 35 12 19 1014.3 - 0.0
30/10:30am 34.2 27.5 -4.3 8 17.9 NNE 22 32 12 17 1014.5 - 0.0
30/10:00am 32.5 25.0 -4.9 9 17.0 NNE 26 35 14 19 1014.8 - 0.0
30/09:30am 32.4 24.5 -4.7 9 16.9 NE 28 41 15 22 1014.7 - 0.0
30/09:00am 30.5 25.6 -3.6 11 15.6 NNE 13 24 7 13 1014.4 1012.7 0.0
30/08:30am 27.0 23.1 -1.6 15 13.2 N 9 13 5 7 1014.3 - 0.0
30/08:28am 26.5 22.5 -2.0 15 13.0 NNE 9 13 5 7 1014.3 - 0.0
30/08:00am 21.4 18.1 0.2 24 9.7 NNE 7 9 4 5 1014.2 - 0.0
30/07:30am 16.5 15.1 3.5 42 6.1 CALM 0 0 0 0 1013.9 - 0.0
30/07:00am 12.5 10.9 2.4 50 4.5 CALM 0 0 0 0 1013.6 - 0.0
30/06:30am 11.7 9.3 2.1 51 4.2 WNW 4 7 2 4 1013.3 - 0.0
30/06:00am 12.1 9.5 1.2 47 4.7 WNW 4 7 2 4 1012.9 1011.1 0.0
30/05:30am 12.6 9.5 1.6 47 4.8 W 7 9 4 5 1012.4 - 0.0
30/05:00am 12.4 9.3 1.6 47 4.7 WSW 7 9 4 5 1012.2 - 0.0
30/04:30am 12.9 9.8 1.4 45 5.0 WSW 7 9 4 5 1011.9 - 0.0
30/04:00am 13.1 9.6 1.1 44 5.2 W 9 11 5 6 1011.8 - 0.0
30/03:30am 12.6 9.5 1.6 47 4.8 W 7 9 4 5 1011.7 - 0.0
30/03:00am 12.7 9.1 0.8 44 5.1 W 9 11 5 6 1011.8 1010.1 0.0
30/02:30am 13.7 10.6 1.4 43 5.4 W 7 7 4 4 1011.9 - 0.0
30/02:00am 13.9 10.8 1.4 42 5.5 WSW 7 9 4 5 1012.0 - 0.0
30/01:30am 14.3 11.5 2.0 43 5.5 WSW 6 7 3 4 1012.3 - 0.0
30/01:00am 14.5 12.4 -0.6 35 6.4 CALM 0 0 0 0 1012.5 - 0.0
30/12:00am 15.8 12.8 0.9 36 6.6 W 6 7 3 4 1013.4 1011.6 0.0
 
Date/Time
CST
Temp
°C
App
Temp
°C
Dew
Point
Rel
Hum
%
Delta-T
°C
Wind Press
QNH
hPa
Press
MSL
hPa
Rain
since 9 am
mm
Dir
 
Spd
km/h
Gust
km/h
Spd
kts
Gust
kts
29/11:30pm 16.5 13.5 0.7 34 7.0 S 6 6 3 3 1013.5 - 0.0
29/11:00pm 16.7 14.6 -0.7 30 7.5 CALM 0 0 0 0 1013.6 - 0.0
29/10:30pm 18.8 16.9 0.3 29 8.3 CALM 0 0 0 0 1013.7 - 0.0
29/10:00pm 19.1 15.7 -2.2 23 9.1 N 6 9 3 5 1013.6 - 0.0
29/09:58pm 18.7 15.4 -1.4 25 8.7 NNE 6 9 3 5 1013.6 - 0.0
29/09:30pm 23.7 20.2 -1.7 18 11.4 NE 7 11 4 6 1013.4 - 0.0
29/09:00pm 24.1 19.9 -0.8 19 11.4 ENE 11 13 6 7 1013.1 1011.2 0.0
29/08:30pm 25.3 21.0 -1.8 16 12.3 NE 11 11 6 6 1012.6 - 0.0
29/08:00pm 26.0 22.1 -1.4 16 12.6 NE 9 11 5 6 1012.2 - 0.0
29/07:30pm 27.4 23.1 -1.4 15 13.4 NE 11 13 6 7 1011.8 - 0.0
29/07:00pm 30.6 27.0 0.5 14 14.8 E 9 11 5 6 1011.4 - 0.0
29/06:30pm 33.6 29.7 -4.5 8 17.6 SE 7 11 4 6 1011.0 - 0.0
29/06:00pm 32.5 27.7 -2.6 10 16.6 E 13 20 7 11 1010.7 1008.9 0.0
29/05:30pm 36.0 45.6 30.9 75 3.9 SE 6 15 3 8 1010.4 - 0.0
29/05:00pm 36.6 45.7 31.9 77 3.6 NE 13 19 7 10 1010.3 - 0.0
29/04:30pm 36.6 45.8 32.4 79 3.3 NNE 15 24 8 13 1010.1 - 0.0
29/04:00pm 37.8 47.8 32.0 72 4.5 E 9 15 5 8 1010.1 - 0.0
29/03:30pm 36.9 45.9 31.7 75 4.0 NE 13 28 7 15 1010.3 - 0.0
29/03:00pm 36.9 45.1 31.7 75 4.0 SE 17 26 9 14 1010.6 1008.8 0.0
29/02:30pm 37.3 46.4 31.0 70 4.8 ESE 9 20 5 11 1011.0 - 0.0
29/02:00pm 37.0 45.0 30.6 70 4.9 ESE 13 24 7 13 1011.4 - 0.0
29/01:30pm 37.0 44.2 31.0 71 4.6 NE 19 35 10 19 1011.9 - 0.0
29/01:00pm 36.3 43.1 29.1 66 5.4 SE 13 24 7 13 1012.4 - 0.0
29/12:30pm 36.3 42.7 29.0 66 5.5 E 15 24 8 13 1013.0 - 0.0
29/12:00pm 35.4 41.1 29.1 70 4.7 NNE 19 30 10 16 1013.3 1011.5 0.0
29/11:30am 35.1 40.1 28.5 68 4.9 N 20 28 11 15 1013.8 - 0.0
29/11:00am 33.9 37.7 26.8 66 5.2 N 20 32 11 17 1014.1 - 0.0
29/10:30am 33.4 35.7 24.5 59 6.3 N 20 28 11 15 1014.4 - 0.0
29/10:00am 31.8 32.2 21.0 52 7.3 N 20 32 11 17 1014.5 - 0.0
29/09:30am 29.7 27.0 13.5 37 9.8 NNE 20 28 11 15 1014.6 - 0.0
29/09:00am 27.4 22.7 -1.5 15 13.4 NNE 13 19 7 10 1014.6 1012.9 0.0
29/08:30am 25.4 21.3 -3.4 14 12.7 N 9 15 5 8 1014.3 - 0.0
29/08:00am 21.3 17.8 -1.2 22 10.0 NNE 7 11 4 6 1014.0 - 0.0
29/07:30am 16.4 13.4 1.8 37 6.6 N 7 9 4 5 1013.7 - 0.0
29/07:00am 11.4 8.9 3.9 60 3.4 W 6 7 3 4 1013.4 - 0.0
29/06:30am 11.3 8.9 2.4 54 3.9 W 4 6 2 3 1013.1 - 0.0
29/06:00am 11.5 9.8 2.1 52 4.1 W 0 7 0 4 1012.9 1011.0 0.0
29/05:30am 11.8 10.1 2.0 51 4.3 CALM 0 0 0 0 1012.5 - 0.0
29/05:00am 12.1 10.0 1.5 48 4.6 W 2 6 1 3 1012.1 - 0.0
29/04:30am 13.0 11.1 2.8 50 4.6 W 2 6 1 3 1012.0 - 0.0
29/04:00am 13.4 10.7 2.8 48 4.8 W 6 7 3 4 1011.8 - 0.0
29/03:30am 13.0 9.7 2.5 49 4.7 W 9 11 5 6 1011.8 - 0.0
29/03:00am 13.5 10.6 2.6 47 4.9 W 7 9 4 5 1011.9 1010.3 0.0
29/02:30am 13.9 12.0 2.6 46 5.1 W 2 9 1 5 1012.2 - 0.0
29/02:00am 14.7 11.7 2.0 42 5.7 WNW 7 9 4 5 1012.3 - 0.0
29/01:30am 15.6 12.8 3.1 43 5.8 NNE 7 9 4 5 1012.4 - 0.0
29/01:00am 16.9 14.8 1.7 36 6.9 WNW 2 6 1 3 1012.8 - 0.0
29/12:30am 17.8 14.8 0.9 32 7.6 W 6 7 3 4 1013.1 - 0.0
29/12:00am 20.7 17.2 1.3 27 9.0 NE 9 11 5 6 1013.5 1011.8 0.0
 
Date/Time
CST
Temp
°C
App
Temp
°C
Dew
Point
Rel
Hum
%
Delta-T
°C
Wind Press
QNH
hPa
Press
MSL
hPa
Rain
since 9 am
mm
Dir
 
Spd
km/h
Gust
km/h
Spd
kts
Gust
kts
28/11:30pm 19.2 15.4 2.0 31 8.0 ENE 11 13 6 7 1013.7 - 0.0
28/11:00pm 21.0 17.6 -1.9 21 10.0 NE 6 7 3 4 1013.8 - 0.0
28/10:30pm 23.9 19.7 -0.8 19 11.3 ENE 11 15 6 8 1013.8 - 0.0
28/10:00pm 22.6 18.7 -1.2 20 10.7 E 9 13 5 7 1013.9 - 0.0
28/09:30pm 24.8 20.7 0.0 19 11.6 ENE 11 15 6 8 1013.7 - 0.0
28/09:00pm 24.9 20.9 0.6 20 11.5 E 11 15 6 8 1013.6 1011.8 0.0
28/08:30pm 25.0 21.6 -0.4 18 11.8 ESE 7 11 4 6 1013.3 - 0.0
28/08:00pm 27.0 23.1 1.3 19 12.5 ENE 11 13 6 7 1012.9 - 0.0
28/07:30pm 27.9 24.5 1.8 18 12.9 E 9 11 5 6 1012.5 - 0.0
28/07:00pm 30.4 26.8 0.4 14 14.7 ESE 9 11 5 6 1012.2 - 0.0
28/06:30pm 33.2 29.6 -2.0 10 16.9 SSE 7 9 4 5 1012.0 - 0.0
28/06:00pm 35.1 31.7 -2.3 9 18.1 S 6 9 3 5 1011.8 1010.1 0.0
28/05:30pm 35.9 31.2 -5.3 7 19.1 S 11 17 6 9 1011.7 - 0.0
28/05:00pm 35.6 31.7 -5.1 7 18.9 SSE 7 15 4 8 1011.7 - 0.0
28/04:30pm 36.4 32.8 -1.8 9 18.8 NW 7 13 4 7 1011.8 - 0.0
28/04:00pm 36.2 31.3 -6.7 6 19.5 N 11 20 6 11 1011.8 - 0.0
28/03:30pm 36.0 31.9 -6.2 6 19.3 W 7 15 4 8 1012.2 - 0.0

Other Formats:

Comma delimited format used in spreadsheet applications
http://www.bom.gov.au/fwo/IDD60801/IDD60801.95322.axf

JavaScript Object Notation format (JSON) in row-major order
http://www.bom.gov.au/fwo/IDD60801/IDD60801.95322.json